Flemingville, New York
Current Conditions -  °F | °C
As of 7:53 AM on Saturday 22 Nov 2014 (Local Time) from KBGM Reporting Station
Few Clouds Few Clouds  
Wind Chill:   Ceiling: Unl
Heat Index: 18°   Visibility: 10mi
Dew Point:   Wind: 9mph
Humidity: 68%   Direction: 190°S
Pressure: 30.28"   Gusts: NA
Location:  42.1349°N, 76.2495°W
Report Text: KBGM 221253Z 19008KT 10SM FEW120 M08/M13 A3028 RMK AO2 SLP280 T10781128
Loading
Personal Weather Stations






























Interactive Weather Map New forecast layout! Learn more

10-Day Weather Forecast

Advertisements
Track Severe Weather on mobile